Shirley P. Settoon — WDF9252 — position and weather

sailwx.info

Track history (hours):
 
Tides and Currents Weather Stations Pressure Air Temp Water Temp Dewpoint Dewpoint Depression Visibility Wind Speed Wind Dir Waves Ship Positions

Shirley P. Settoon

Owner: Settoon Towing, LLC, Houma, LA. More information available from US FCC via Universal Licensing System and Coast Guard Vessel Documentation Center.

Last reported at 2015-Jul-04 02:16 UTC. Time now 2015-Jul-05 02:39 UTC.
Position N 29°29' W 094°52'.

Length 32 m.

Type: Towing. MMSI: 367503240.

Date/timePositionNaut miles runAvg speedWind from/ knotsBaromVisibWave heightAir tempDewpointWater temp
2015-Jul-04 02:16N 29°29' W 094°52'6 8.8
2015-Jul-04 01:33N 29°34' W 094°55'9 8.6
2015-Jul-04 00:33N 29°42' W 094°60'7 6.5
2015-Jul-03 23:33N 29°47' W 095°04'1 0.7
2015-Jul-03 22:23N 29°47' W 095°04'1 1.5
2015-Jul-03 21:33N 29°46' W 095°05'10 1.1
2015-Jul-03 12:33N 29°43' W 095°15'5 0.2
2015-Jul-02 11:18N 29°45' W 095°10'5 6.7
2015-Jul-02 10:33N 29°45' W 095°04'7 7.0
2015-Jul-02 09:33N 29°40' W 094°59'8 7.9
2015-Jul-02 08:33N 29°33' W 094°55'  
2015-Jun-28 04:04N 29°37' W 090°59'3 4.5
2015-Jun-28 03:19N 29°34' W 090°56'4 4.8
2015-Jun-28 02:28N 29°32' W 090°52'4 4.6
2015-Jun-28 01:33N 29°32' W 090°47'4 3.7
2015-Jun-28 00:33N 29°34' W 090°44'3 3.3
2015-Jun-27 23:33N 29°37' W 090°42'4 4.0
2015-Jun-27 22:33N 29°35' W 090°38'4 3.9
2015-Jun-27 21:33N 29°34' W 090°33'38 1.0
2015-Jun-26 06:24N 29°55' W 089°57'3 3.8
2015-Jun-26 05:33N 29°56' W 090°00'0 0.0
2015-Jun-26 04:33N 29°56' W 090°00'0 0.0
2015-Jun-26 03:33N 29°56' W 090°00'0 0.0
2015-Jun-26 02:33N 29°56' W 090°00'0 0.0
2015-Jun-26 01:32N 29°56' W 090°00'0 0.0
2015-Jun-25 23:32N 29°56' W 090°00'32 1.2
2015-Jun-24 19:33N 29°33' W 090°26'6 6.4
2015-Jun-24 18:33N 29°34' W 090°34'6 5.8
2015-Jun-24 17:33N 29°36' W 090°40'2 2.4
2015-Jun-24 16:33N 29°36' W 090°43'5 4.6
2015-Jun-24 15:33N 29°32' W 090°46'47 4.2
2015-Jun-24 04:33N 29°46' W 091°37'  
Track history (hours):
 
Tides and Currents Weather Stations Pressure Air Temp Water Temp Dewpoint Dewpoint Depression Visibility Wind Speed Wind Dir Waves Ship Positions

Shirley P. Settoon

Owner: Settoon Towing, LLC, Houma, LA. More information available from US FCC via Universal Licensing System and Coast Guard Vessel Documentation Center.

Last reported at 2015-Jul-04 02:16 UTC. Time now 2015-Jul-05 02:39 UTC.
Position N 29°29' W 094°52'.

Length 32 m.

Type: Towing. MMSI: 367503240.

Date/timePositionNaut miles runAvg speedWind from/ knotsBaromVisibWave heightAir tempDewpointWater temp
2015-Jul-04 02:16N 29°29' W 094°52'6 8.8
2015-Jul-04 01:33N 29°34' W 094°55'9 8.6
2015-Jul-04 00:33N 29°42' W 094°60'7 6.5
2015-Jul-03 23:33N 29°47' W 095°04'1 0.7
2015-Jul-03 22:23N 29°47' W 095°04'1 1.5
2015-Jul-03 21:33N 29°46' W 095°05'10 1.1
2015-Jul-03 12:33N 29°43' W 095°15'5 0.2
2015-Jul-02 11:18N 29°45' W 095°10'5 6.7
2015-Jul-02 10:33N 29°45' W 095°04'7 7.0
2015-Jul-02 09:33N 29°40' W 094°59'8 7.9
2015-Jul-02 08:33N 29°33' W 094°55'  
2015-Jun-28 04:04N 29°37' W 090°59'3 4.5
2015-Jun-28 03:19N 29°34' W 090°56'4 4.8
2015-Jun-28 02:28N 29°32' W 090°52'4 4.6
2015-Jun-28 01:33N 29°32' W 090°47'4 3.7
2015-Jun-28 00:33N 29°34' W 090°44'3 3.3
2015-Jun-27 23:33N 29°37' W 090°42'4 4.0
2015-Jun-27 22:33N 29°35' W 090°38'4 3.9
2015-Jun-27 21:33N 29°34' W 090°33'38 1.0
2015-Jun-26 06:24N 29°55' W 089°57'3 3.8
2015-Jun-26 05:33N 29°56' W 090°00'0 0.0
2015-Jun-26 04:33N 29°56' W 090°00'0 0.0
2015-Jun-26 03:33N 29°56' W 090°00'0 0.0
2015-Jun-26 02:33N 29°56' W 090°00'0 0.0
2015-Jun-26 01:32N 29°56' W 090°00'0 0.0
2015-Jun-25 23:32N 29°56' W 090°00'32 1.2
2015-Jun-24 19:33N 29°33' W 090°26'6 6.4
2015-Jun-24 18:33N 29°34' W 090°34'6 5.8
2015-Jun-24 17:33N 29°36' W 090°40'2 2.4
2015-Jun-24 16:33N 29°36' W 090°43'5 4.6
2015-Jun-24 15:33N 29°32' W 090°46'47 4.2
2015-Jun-24 04:33N 29°46' W 091°37'  

Dump ship's entire track history